Saturday, November 18, 2017, 9:36 PM GMT
Back to Local

CXHF, High Falls , Que.

Location: , , Canada Lat: 45.833
Local Time: 9:36 PM GMT (21:36 GMT) Lon: -75.65
Time Zone: GMT Elev: 623 ft

Show me the last for .
Show Coded

Time T Td Feel RH Dir Speed Gust Alt SLP Vis Weather Sky Remarks
2017-11-18 20:00 29 28 - 96 - - - - - 0 None
2017-11-18 19:00 31 22 - 70 - - - - - 0 None
2017-11-18 18:00 31 19 - 60 - - - - - 0 None
2017-11-18 17:00 31 18 - 57 - - - - - 0 None
2017-11-18 16:00 29 17 - 61 - - - - - 0 None
2017-11-18 15:00 28 17 - 60 - - - - - 0 None
2017-11-18 14:00 27 15 - 60 - - - - - 0 None
2017-11-18 13:00 28 16 - 61 - - - - - 0 None
2017-11-18 11:00 25 19 - 75 - - - - - 0 None
2017-11-18 10:00 24 18 - 75 - - - - - 0 None
2017-11-18 09:00 23 18 - 79 - - - - - 0 None
2017-11-18 08:00 23 18 - 80 - - - - - 0 None
2017-11-18 07:00 21 19 - 90 - - - - - 0 None
2017-11-18 06:00 20 17 - 87 - - - - - 0 None
2017-11-18 05:00 21 19 - 91 - - - - - 0 None
2017-11-18 04:00 21 18 - 89 - - - - - 0 None
2017-11-18 03:00 22 18 - 84 - - - - - 0 None
2017-11-18 02:00 20 19 - 93 - - - - - 0 None
2017-11-18 01:00 21 17 - 85 - - - - - 0 None
2017-11-18 00:00 22 17 - 81 - - - - - 0 None
2017-11-17 23:00 24 14 - 65 - - - - - 0 None
2017-11-17 22:00 28 16 - 61 - - - - - 0 None

Support USWX by starting your Amazon purchase here.